Terminal Aerodrome Forecast
Issued by NWS

Home | Current Version | Previous Version | Text Only | Print | Product List | Glossary On
Versions: 1 2 3 4 5 6 7 8 9 10 11 12 13 14 15 16 17 18
000
FTUS41 KPBZ 292344
TAFZZV
TAF
KZZV 292344Z 3000/3024 25004KT P6SM -SHRA BKN050
     FM300400 02006KT P6SM -SHRA BKN025
     FM300700 04005KT P6SM VCSH BKN035
     FM301200 09014G20KT P6SM BKN050=

USA.gov is the U.S. government's official web portal to all federal, state and local government web resources and services.